sensor_id;sensor_type;location;lat;lon;timestamp;P1;durP1;ratioP1;P2;durP2;ratioP2
13441;SDS011;6793;55.662;13.114;2023-07-28T00:00:52;0.00;;;0.00;;
13441;SDS011;6793;55.662;13.114;2023-07-28T00:03:19;0.00;;;0.00;;
13441;SDS011;6793;55.662;13.114;2023-07-28T00:05:47;0.00;;;0.00;;
13441;SDS011;6793;55.662;13.114;2023-07-28T00:08:14;0.00;;;0.00;;
13441;SDS011;6793;55.662;13.114;2023-07-28T00:10:41;0.00;;;0.00;;
13441;SDS011;6793;55.662;13.114;2023-07-28T00:13:08;0.00;;;0.00;;
13441;SDS011;6793;55.662;13.114;2023-07-28T00:15:35;0.00;;;0.00;;
13441;SDS011;6793;55.662;13.114;2023-07-28T00:18:04;0.00;;;0.00;;
13441;SDS011;6793;55.662;13.114;2023-07-28T00:20:31;0.00;;;0.00;;
13441;SDS011;6793;55.662;13.114;2023-07-28T00:22:58;0.00;;;0.00;;
13441;SDS011;6793;55.662;13.114;2023-07-28T00:25:25;0.00;;;0.00;;
13441;SDS011;6793;55.662;13.114;2023-07-28T00:27:52;0.00;;;0.00;;
13441;SDS011;6793;55.662;13.114;2023-07-28T00:30:19;0.00;;;0.00;;
13441;SDS011;6793;55.662;13.114;2023-07-28T00:32:46;0.00;;;0.00;;
13441;SDS011;6793;55.662;13.114;2023-07-28T00:35:15;0.00;;;0.00;;
13441;SDS011;6793;55.662;13.114;2023-07-28T00:37:42;0.00;;;0.00;;
13441;SDS011;6793;55.662;13.114;2023-07-28T00:40:09;0.00;;;0.00;;
13441;SDS011;6793;55.662;13.114;2023-07-28T00:42:37;0.00;;;0.00;;
13441;SDS011;6793;55.662;13.114;2023-07-28T00:45:04;0.00;;;0.00;;
13441;SDS011;6793;55.662;13.114;2023-07-28T00:47:31;0.00;;;0.00;;
13441;SDS011;6793;55.662;13.114;2023-07-28T00:49:58;0.00;;;0.00;;
13441;SDS011;6793;55.662;13.114;2023-07-28T00:52:26;0.00;;;0.00;;
13441;SDS011;6793;55.662;13.114;2023-07-28T00:54:53;0.00;;;0.00;;
13441;SDS011;6793;55.662;13.114;2023-07-28T00:57:21;0.00;;;0.00;;
13441;SDS011;6793;55.662;13.114;2023-07-28T00:59:48;0.00;;;0.00;;
13441;SDS011;6793;55.662;13.114;2023-07-28T01:02:15;0.00;;;0.00;;
13441;SDS011;6793;55.662;13.114;2023-07-28T01:04:42;0.00;;;0.00;;
13441;SDS011;6793;55.662;13.114;2023-07-28T01:07:09;0.00;;;0.00;;
13441;SDS011;6793;55.662;13.114;2023-07-28T01:09:42;0.00;;;0.00;;
13441;SDS011;6793;55.662;13.114;2023-07-28T01:12:10;0.00;;;0.00;;
13441;SDS011;6793;55.662;13.114;2023-07-28T01:14:37;0.00;;;0.00;;
13441;SDS011;6793;55.662;13.114;2023-07-28T01:17:04;0.00;;;0.00;;
13441;SDS011;6793;55.662;13.114;2023-07-28T01:19:31;0.00;;;0.00;;
13441;SDS011;6793;55.662;13.114;2023-07-28T01:22:07;0.00;;;0.00;;
13441;SDS011;6793;55.662;13.114;2023-07-28T01:24:41;0.00;;;0.00;;
13441;SDS011;6793;55.662;13.114;2023-07-28T01:27:13;0.00;;;0.00;;
13441;SDS011;6793;55.662;13.114;2023-07-28T01:29:40;0.00;;;0.00;;
13441;SDS011;6793;55.662;13.114;2023-07-28T01:32:07;0.00;;;0.00;;
13441;SDS011;6793;55.662;13.114;2023-07-28T01:34:34;0.00;;;0.00;;
13441;SDS011;6793;55.662;13.114;2023-07-28T01:37:01;0.00;;;0.00;;
13441;SDS011;6793;55.662;13.114;2023-07-28T01:39:28;0.00;;;0.00;;
13441;SDS011;6793;55.662;13.114;2023-07-28T01:41:55;0.00;;;0.00;;
13441;SDS011;6793;55.662;13.114;2023-07-28T01:44:23;0.00;;;0.00;;
13441;SDS011;6793;55.662;13.114;2023-07-28T01:46:50;0.00;;;0.00;;
13441;SDS011;6793;55.662;13.114;2023-07-28T01:49:17;0.00;;;0.00;;
13441;SDS011;6793;55.662;13.114;2023-07-28T01:51:44;0.00;;;0.00;;
13441;SDS011;6793;55.662;13.114;2023-07-28T01:54:11;0.00;;;0.00;;
13441;SDS011;6793;55.662;13.114;2023-07-28T01:56:38;0.00;;;0.00;;
13441;SDS011;6793;55.662;13.114;2023-07-28T01:59:05;0.00;;;0.00;;
13441;SDS011;6793;55.662;13.114;2023-07-28T02:01:34;0.00;;;0.00;;
13441;SDS011;6793;55.662;13.114;2023-07-28T02:04:01;0.00;;;0.00;;
13441;SDS011;6793;55.662;13.114;2023-07-28T02:06:28;0.00;;;0.00;;
13441;SDS011;6793;55.662;13.114;2023-07-28T02:08:56;0.00;;;0.00;;
13441;SDS011;6793;55.662;13.114;2023-07-28T02:11:23;0.00;;;0.00;;
13441;SDS011;6793;55.662;13.114;2023-07-28T02:13:50;0.00;;;0.00;;
13441;SDS011;6793;55.662;13.114;2023-07-28T02:16:17;0.00;;;0.00;;
13441;SDS011;6793;55.662;13.114;2023-07-28T02:18:46;0.00;;;0.00;;
13441;SDS011;6793;55.662;13.114;2023-07-28T02:21:13;0.00;;;0.00;;
13441;SDS011;6793;55.662;13.114;2023-07-28T02:23:40;0.00;;;0.00;;
13441;SDS011;6793;55.662;13.114;2023-07-28T02:26:07;0.00;;;0.00;;
13441;SDS011;6793;55.662;13.114;2023-07-28T02:28:34;0.00;;;0.00;;
13441;SDS011;6793;55.662;13.114;2023-07-28T02:31:01;0.00;;;0.00;;
13441;SDS011;6793;55.662;13.114;2023-07-28T02:33:28;0.00;;;0.00;;
13441;SDS011;6793;55.662;13.114;2023-07-28T02:35:58;0.00;;;0.00;;
13441;SDS011;6793;55.662;13.114;2023-07-28T02:38:25;0.00;;;0.00;;
13441;SDS011;6793;55.662;13.114;2023-07-28T02:40:52;0.00;;;0.00;;
13441;SDS011;6793;55.662;13.114;2023-07-28T02:43:19;0.00;;;0.00;;
13441;SDS011;6793;55.662;13.114;2023-07-28T02:45:47;0.00;;;0.00;;
13441;SDS011;6793;55.662;13.114;2023-07-28T02:48:14;0.00;;;0.00;;
13441;SDS011;6793;55.662;13.114;2023-07-28T02:50:44;0.00;;;0.00;;
13441;SDS011;6793;55.662;13.114;2023-07-28T02:53:13;0.00;;;0.00;;
13441;SDS011;6793;55.662;13.114;2023-07-28T02:55:41;0.00;;;0.00;;
13441;SDS011;6793;55.662;13.114;2023-07-28T02:58:08;0.00;;;0.00;;
13441;SDS011;6793;55.662;13.114;2023-07-28T03:00:36;0.00;;;0.00;;
13441;SDS011;6793;55.662;13.114;2023-07-28T03:03:04;0.00;;;0.00;;
13441;SDS011;6793;55.662;13.114;2023-07-28T03:05:31;0.00;;;0.00;;
13441;SDS011;6793;55.662;13.114;2023-07-28T03:07:58;0.00;;;0.00;;
13441;SDS011;6793;55.662;13.114;2023-07-28T03:10:27;0.00;;;0.00;;
13441;SDS011;6793;55.662;13.114;2023-07-28T03:12:54;0.00;;;0.00;;
13441;SDS011;6793;55.662;13.114;2023-07-28T03:15:21;0.00;;;0.00;;
13441;SDS011;6793;55.662;13.114;2023-07-28T03:17:49;0.00;;;0.00;;
13441;SDS011;6793;55.662;13.114;2023-07-28T03:27:38;0.00;;;0.00;;
13441;SDS011;6793;55.662;13.114;2023-07-28T03:30:05;0.00;;;0.00;;
13441;SDS011;6793;55.662;13.114;2023-07-28T03:32:35;0.00;;;0.00;;
13441;SDS011;6793;55.662;13.114;2023-07-28T03:35:02;0.00;;;0.00;;
13441;SDS011;6793;55.662;13.114;2023-07-28T03:37:30;0.00;;;0.00;;
13441;SDS011;6793;55.662;13.114;2023-07-28T03:39:57;0.00;;;0.00;;
13441;SDS011;6793;55.662;13.114;2023-07-28T03:42:24;0.00;;;0.00;;
13441;SDS011;6793;55.662;13.114;2023-07-28T03:44:53;0.00;;;0.00;;
13441;SDS011;6793;55.662;13.114;2023-07-28T03:47:20;0.00;;;0.00;;
13441;SDS011;6793;55.662;13.114;2023-07-28T03:49:47;0.00;;;0.00;;
13441;SDS011;6793;55.662;13.114;2023-07-28T03:52:14;0.00;;;0.00;;
13441;SDS011;6793;55.662;13.114;2023-07-28T03:54:41;0.00;;;0.00;;
13441;SDS011;6793;55.662;13.114;2023-07-28T03:57:08;0.00;;;0.00;;
13441;SDS011;6793;55.662;13.114;2023-07-28T03:59:35;0.00;;;0.00;;
13441;SDS011;6793;55.662;13.114;2023-07-28T04:02:04;0.00;;;0.00;;
13441;SDS011;6793;55.662;13.114;2023-07-28T04:04:31;0.00;;;0.00;;
13441;SDS011;6793;55.662;13.114;2023-07-28T04:06:58;0.00;;;0.00;;
13441;SDS011;6793;55.662;13.114;2023-07-28T04:09:26;0.00;;;0.00;;
13441;SDS011;6793;55.662;13.114;2023-07-28T04:11:53;0.00;;;0.00;;
13441;SDS011;6793;55.662;13.114;2023-07-28T04:14:20;0.00;;;0.00;;
13441;SDS011;6793;55.662;13.114;2023-07-28T04:16:47;0.00;;;0.00;;
13441;SDS011;6793;55.662;13.114;2023-07-28T04:19:16;0.00;;;0.00;;
13441;SDS011;6793;55.662;13.114;2023-07-28T04:21:43;0.00;;;0.00;;
13441;SDS011;6793;55.662;13.114;2023-07-28T04:24:10;0.00;;;0.00;;
13441;SDS011;6793;55.662;13.114;2023-07-28T04:26:37;0.00;;;0.00;;
13441;SDS011;6793;55.662;13.114;2023-07-28T04:29:04;0.00;;;0.00;;
13441;SDS011;6793;55.662;13.114;2023-07-28T04:31:31;0.00;;;0.00;;
13441;SDS011;6793;55.662;13.114;2023-07-28T04:33:58;0.00;;;0.00;;
13441;SDS011;6793;55.662;13.114;2023-07-28T04:36:27;0.00;;;0.00;;
13441;SDS011;6793;55.662;13.114;2023-07-28T04:38:54;0.00;;;0.00;;
13441;SDS011;6793;55.662;13.114;2023-07-28T04:41:21;0.00;;;0.00;;
13441;SDS011;6793;55.662;13.114;2023-07-28T04:43:48;0.00;;;0.00;;
13441;SDS011;6793;55.662;13.114;2023-07-28T04:46:15;0.00;;;0.00;;
13441;SDS011;6793;55.662;13.114;2023-07-28T04:48:42;0.00;;;0.00;;
13441;SDS011;6793;55.662;13.114;2023-07-28T04:51:09;0.00;;;0.00;;
13441;SDS011;6793;55.662;13.114;2023-07-28T04:53:37;0.00;;;0.00;;
13441;SDS011;6793;55.662;13.114;2023-07-28T04:56:04;0.00;;;0.00;;
13441;SDS011;6793;55.662;13.114;2023-07-28T04:58:33;0.00;;;0.00;;
13441;SDS011;6793;55.662;13.114;2023-07-28T05:01:00;0.00;;;0.00;;
13441;SDS011;6793;55.662;13.114;2023-07-28T05:03:27;0.00;;;0.00;;
13441;SDS011;6793;55.662;13.114;2023-07-28T05:05:54;0.00;;;0.00;;
13441;SDS011;6793;55.662;13.114;2023-07-28T05:08:21;0.00;;;0.00;;
13441;SDS011;6793;55.662;13.114;2023-07-28T05:10:50;0.00;;;0.00;;
13441;SDS011;6793;55.662;13.114;2023-07-28T05:13:17;0.00;;;0.00;;
13441;SDS011;6793;55.662;13.114;2023-07-28T05:15:44;0.00;;;0.00;;
13441;SDS011;6793;55.662;13.114;2023-07-28T05:18:11;0.00;;;0.00;;
13441;SDS011;6793;55.662;13.114;2023-07-28T05:20:38;0.00;;;0.00;;
13441;SDS011;6793;55.662;13.114;2023-07-28T05:23:05;0.00;;;0.00;;
13441;SDS011;6793;55.662;13.114;2023-07-28T05:25:32;0.00;;;0.00;;
13441;SDS011;6793;55.662;13.114;2023-07-28T05:28:00;0.00;;;0.00;;
13441;SDS011;6793;55.662;13.114;2023-07-28T05:30:27;0.00;;;0.00;;
13441;SDS011;6793;55.662;13.114;2023-07-28T05:32:55;0.00;;;0.00;;
13441;SDS011;6793;55.662;13.114;2023-07-28T05:35:22;0.00;;;0.00;;
13441;SDS011;6793;55.662;13.114;2023-07-28T05:37:49;0.00;;;0.00;;
13441;SDS011;6793;55.662;13.114;2023-07-28T05:40:16;0.00;;;0.00;;
13441;SDS011;6793;55.662;13.114;2023-07-28T05:42:43;0.00;;;0.00;;
13441;SDS011;6793;55.662;13.114;2023-07-28T05:45:11;0.00;;;0.00;;
13441;SDS011;6793;55.662;13.114;2023-07-28T05:47:38;0.00;;;0.00;;
13441;SDS011;6793;55.662;13.114;2023-07-28T05:50:06;0.00;;;0.00;;
13441;SDS011;6793;55.662;13.114;2023-07-28T05:52:33;0.00;;;0.00;;
13441;SDS011;6793;55.662;13.114;2023-07-28T05:55:00;0.00;;;0.00;;
13441;SDS011;6793;55.662;13.114;2023-07-28T05:57:27;0.00;;;0.00;;
13441;SDS011;6793;55.662;13.114;2023-07-28T05:59:54;0.10;;;0.10;;
13441;SDS011;6793;55.662;13.114;2023-07-28T06:02:22;0.10;;;0.10;;
13441;SDS011;6793;55.662;13.114;2023-07-28T06:04:49;0.28;;;0.28;;
13441;SDS011;6793;55.662;13.114;2023-07-28T06:07:17;0.30;;;0.30;;
13441;SDS011;6793;55.662;13.114;2023-07-28T06:09:44;0.38;;;0.38;;
13441;SDS011;6793;55.662;13.114;2023-07-28T06:12:11;0.30;;;0.30;;
13441;SDS011;6793;55.662;13.114;2023-07-28T06:14:38;0.40;;;0.40;;
13441;SDS011;6793;55.662;13.114;2023-07-28T06:17:05;0.30;;;0.30;;
13441;SDS011;6793;55.662;13.114;2023-07-28T06:19:34;0.40;;;0.40;;
13441;SDS011;6793;55.662;13.114;2023-07-28T06:22:01;0.30;;;0.30;;
13441;SDS011;6793;55.662;13.114;2023-07-28T06:24:29;0.30;;;0.30;;
13441;SDS011;6793;55.662;13.114;2023-07-28T06:26:56;0.30;;;0.30;;
13441;SDS011;6793;55.662;13.114;2023-07-28T06:29:24;0.30;;;0.30;;
13441;SDS011;6793;55.662;13.114;2023-07-28T06:31:51;0.28;;;0.28;;
13441;SDS011;6793;55.662;13.114;2023-07-28T06:34:18;0.30;;;0.30;;
13441;SDS011;6793;55.662;13.114;2023-07-28T06:36:46;0.30;;;0.30;;
13441;SDS011;6793;55.662;13.114;2023-07-28T06:39:13;0.10;;;0.10;;
13441;SDS011;6793;55.662;13.114;2023-07-28T06:41:40;0.30;;;0.30;;
13441;SDS011;6793;55.662;13.114;2023-07-28T06:44:07;0.10;;;0.10;;
13441;SDS011;6793;55.662;13.114;2023-07-28T06:46:34;0.10;;;0.10;;
13441;SDS011;6793;55.662;13.114;2023-07-28T06:49:01;0.10;;;0.10;;
13441;SDS011;6793;55.662;13.114;2023-07-28T06:51:29;0.10;;;0.10;;
13441;SDS011;6793;55.662;13.114;2023-07-28T06:53:57;0.10;;;0.10;;
13441;SDS011;6793;55.662;13.114;2023-07-28T06:56:24;0.17;;;0.17;;
13441;SDS011;6793;55.662;13.114;2023-07-28T06:58:51;0.20;;;0.20;;
13441;SDS011;6793;55.662;13.114;2023-07-28T07:01:18;0.40;;;0.40;;
13441;SDS011;6793;55.662;13.114;2023-07-28T07:03:47;0.30;;;0.30;;
13441;SDS011;6793;55.662;13.114;2023-07-28T07:06:14;0.30;;;0.30;;
13441;SDS011;6793;55.662;13.114;2023-07-28T07:08:42;0.30;;;0.30;;
13441;SDS011;6793;55.662;13.114;2023-07-28T07:11:10;0.30;;;0.30;;
13441;SDS011;6793;55.662;13.114;2023-07-28T07:13:37;0.30;;;0.30;;
13441;SDS011;6793;55.662;13.114;2023-07-28T07:16:04;0.30;;;0.30;;
13441;SDS011;6793;55.662;13.114;2023-07-28T07:18:32;0.30;;;0.30;;
13441;SDS011;6793;55.662;13.114;2023-07-28T07:21:00;0.30;;;0.30;;
13441;SDS011;6793;55.662;13.114;2023-07-28T07:23:28;0.20;;;0.20;;
13441;SDS011;6793;55.662;13.114;2023-07-28T07:25:55;0.20;;;0.20;;
13441;SDS011;6793;55.662;13.114;2023-07-28T07:28:23;0.22;;;0.22;;
13441;SDS011;6793;55.662;13.114;2023-07-28T07:30:50;0.25;;;0.25;;
13441;SDS011;6793;55.662;13.114;2023-07-28T07:33:17;0.30;;;0.30;;
13441;SDS011;6793;55.662;13.114;2023-07-28T07:35:44;0.30;;;0.30;;
13441;SDS011;6793;55.662;13.114;2023-07-28T07:38:11;0.30;;;0.30;;
13441;SDS011;6793;55.662;13.114;2023-07-28T07:40:38;0.28;;;0.28;;
13441;SDS011;6793;55.662;13.114;2023-07-28T07:43:05;0.20;;;0.20;;
13441;SDS011;6793;55.662;13.114;2023-07-28T07:45:34;0.30;;;0.30;;
13441;SDS011;6793;55.662;13.114;2023-07-28T07:48:01;0.20;;;0.20;;
13441;SDS011;6793;55.662;13.114;2023-07-28T07:50:28;0.20;;;0.20;;
13441;SDS011;6793;55.662;13.114;2023-07-28T07:52:55;0.25;;;0.25;;
13441;SDS011;6793;55.662;13.114;2023-07-28T07:55:22;0.30;;;0.30;;
13441;SDS011;6793;55.662;13.114;2023-07-28T07:57:49;0.28;;;0.28;;
13441;SDS011;6793;55.662;13.114;2023-07-28T08:00:16;0.20;;;0.20;;
13441;SDS011;6793;55.662;13.114;2023-07-28T08:02:45;0.20;;;0.20;;
13441;SDS011;6793;55.662;13.114;2023-07-28T08:05:12;0.20;;;0.20;;
13441;SDS011;6793;55.662;13.114;2023-07-28T08:07:39;0.20;;;0.20;;
13441;SDS011;6793;55.662;13.114;2023-07-28T08:10:06;0.20;;;0.20;;
13441;SDS011;6793;55.662;13.114;2023-07-28T08:12:33;0.20;;;0.20;;
13441;SDS011;6793;55.662;13.114;2023-07-28T08:15:00;0.25;;;0.25;;
13441;SDS011;6793;55.662;13.114;2023-07-28T08:17:28;0.20;;;0.20;;
13441;SDS011;6793;55.662;13.114;2023-07-28T08:19:56;0.30;;;0.30;;
13441;SDS011;6793;55.662;13.114;2023-07-28T08:22:23;0.30;;;0.30;;
13441;SDS011;6793;55.662;13.114;2023-07-28T08:24:51;0.30;;;0.30;;
13441;SDS011;6793;55.662;13.114;2023-07-28T08:27:18;0.40;;;0.40;;
13441;SDS011;6793;55.662;13.114;2023-07-28T08:29:45;0.45;;;0.45;;
13441;SDS011;6793;55.662;13.114;2023-07-28T08:32:12;0.40;;;0.40;;
13441;SDS011;6793;55.662;13.114;2023-07-28T08:34:39;0.30;;;0.30;;
13441;SDS011;6793;55.662;13.114;2023-07-28T08:37:07;0.40;;;0.40;;
13441;SDS011;6793;55.662;13.114;2023-07-28T08:39:34;0.40;;;0.40;;
13441;SDS011;6793;55.662;13.114;2023-07-28T08:42:01;0.40;;;0.40;;
13441;SDS011;6793;55.662;13.114;2023-07-28T08:44:30;0.40;;;0.40;;
13441;SDS011;6793;55.662;13.114;2023-07-28T08:46:57;0.40;;;0.40;;
13441;SDS011;6793;55.662;13.114;2023-07-28T08:49:24;0.40;;;0.40;;
13441;SDS011;6793;55.662;13.114;2023-07-28T08:51:52;0.32;;;0.32;;
13441;SDS011;6793;55.662;13.114;2023-07-28T08:54:20;0.30;;;0.30;;
13441;SDS011;6793;55.662;13.114;2023-07-28T08:56:47;0.30;;;0.30;;
13441;SDS011;6793;55.662;13.114;2023-07-28T08:59:20;0.30;;;0.30;;
13441;SDS011;6793;55.662;13.114;2023-07-28T09:01:49;0.30;;;0.30;;
13441;SDS011;6793;55.662;13.114;2023-07-28T09:04:16;0.20;;;0.20;;
13441;SDS011;6793;55.662;13.114;2023-07-28T09:06:44;0.30;;;0.30;;
13441;SDS011;6793;55.662;13.114;2023-07-28T09:09:11;0.30;;;0.30;;
13441;SDS011;6793;55.662;13.114;2023-07-28T09:11:44;0.17;;;0.17;;
13441;SDS011;6793;55.662;13.114;2023-07-28T09:14:11;0.20;;;0.20;;
13441;SDS011;6793;55.662;13.114;2023-07-28T09:16:39;0.20;;;0.20;;
13441;SDS011;6793;55.662;13.114;2023-07-28T09:19:06;0.20;;;0.20;;
13441;SDS011;6793;55.662;13.114;2023-07-28T09:21:33;0.20;;;0.20;;
13441;SDS011;6793;55.662;13.114;2023-07-28T09:24:03;0.20;;;0.20;;
13441;SDS011;6793;55.662;13.114;2023-07-28T09:26:36;0.20;;;0.20;;
13441;SDS011;6793;55.662;13.114;2023-07-28T09:29:11;0.20;;;0.20;;
13441;SDS011;6793;55.662;13.114;2023-07-28T09:31:38;0.20;;;0.20;;
13441;SDS011;6793;55.662;13.114;2023-07-28T09:34:06;0.20;;;0.20;;
13441;SDS011;6793;55.662;13.114;2023-07-28T09:36:34;0.60;;;0.60;;
13441;SDS011;6793;55.662;13.114;2023-07-28T09:39:03;0.30;;;0.30;;
13441;SDS011;6793;55.662;13.114;2023-07-28T09:41:32;0.20;;;0.20;;
13441;SDS011;6793;55.662;13.114;2023-07-28T09:43:59;0.20;;;0.20;;
13441;SDS011;6793;55.662;13.114;2023-07-28T09:46:27;0.20;;;0.20;;
13441;SDS011;6793;55.662;13.114;2023-07-28T09:48:55;0.20;;;0.20;;
13441;SDS011;6793;55.662;13.114;2023-07-28T09:51:23;0.30;;;0.30;;
13441;SDS011;6793;55.662;13.114;2023-07-28T09:53:53;0.30;;;0.30;;
13441;SDS011;6793;55.662;13.114;2023-07-28T09:56:20;0.38;;;0.38;;
13441;SDS011;6793;55.662;13.114;2023-07-28T09:58:49;0.20;;;0.20;;
13441;SDS011;6793;55.662;13.114;2023-07-28T10:01:16;0.30;;;0.30;;
13441;SDS011;6793;55.662;13.114;2023-07-28T10:03:45;0.40;;;0.40;;
13441;SDS011;6793;55.662;13.114;2023-07-28T10:06:12;0.30;;;0.30;;
13441;SDS011;6793;55.662;13.114;2023-07-28T10:08:41;0.32;;;0.32;;
13441;SDS011;6793;55.662;13.114;2023-07-28T10:11:09;0.40;;;0.40;;
13441;SDS011;6793;55.662;13.114;2023-07-28T10:13:40;0.30;;;0.30;;
13441;SDS011;6793;55.662;13.114;2023-07-28T10:16:07;0.40;;;0.40;;
13441;SDS011;6793;55.662;13.114;2023-07-28T10:18:35;0.40;;;0.40;;
13441;SDS011;6793;55.662;13.114;2023-07-28T10:21:04;0.47;;;0.47;;
13441;SDS011;6793;55.662;13.114;2023-07-28T10:23:33;0.30;;;0.30;;
13441;SDS011;6793;55.662;13.114;2023-07-28T10:26:01;0.40;;;0.40;;
13441;SDS011;6793;55.662;13.114;2023-07-28T10:28:31;0.40;;;0.40;;
13441;SDS011;6793;55.662;13.114;2023-07-28T10:31:00;0.30;;;0.30;;
13441;SDS011;6793;55.662;13.114;2023-07-28T10:33:31;0.30;;;0.30;;
13441;SDS011;6793;55.662;13.114;2023-07-28T10:35:59;0.40;;;0.40;;
13441;SDS011;6793;55.662;13.114;2023-07-28T10:38:32;0.30;;;0.30;;
13441;SDS011;6793;55.662;13.114;2023-07-28T10:41:06;0.30;;;0.30;;
13441;SDS011;6793;55.662;13.114;2023-07-28T10:43:33;0.32;;;0.32;;
13441;SDS011;6793;55.662;13.114;2023-07-28T10:46:00;0.35;;;0.35;;
13441;SDS011;6793;55.662;13.114;2023-07-28T10:48:27;0.40;;;0.40;;
13441;SDS011;6793;55.662;13.114;2023-07-28T10:50:54;0.40;;;0.40;;
13441;SDS011;6793;55.662;13.114;2023-07-28T10:53:21;0.40;;;0.40;;
13441;SDS011;6793;55.662;13.114;2023-07-28T10:55:50;0.43;;;0.43;;
13441;SDS011;6793;55.662;13.114;2023-07-28T10:58:17;0.40;;;0.40;;
13441;SDS011;6793;55.662;13.114;2023-07-28T11:00:53;0.40;;;0.40;;
13441;SDS011;6793;55.662;13.114;2023-07-28T11:03:20;0.40;;;0.40;;
13441;SDS011;6793;55.662;13.114;2023-07-28T11:05:49;0.43;;;0.43;;
13441;SDS011;6793;55.662;13.114;2023-07-28T11:08:16;0.40;;;0.40;;
13441;SDS011;6793;55.662;13.114;2023-07-28T11:10:44;0.40;;;0.40;;
13441;SDS011;6793;55.662;13.114;2023-07-28T11:13:12;0.40;;;0.40;;
13441;SDS011;6793;55.662;13.114;2023-07-28T11:15:40;0.30;;;0.30;;
13441;SDS011;6793;55.662;13.114;2023-07-28T11:18:07;0.30;;;0.30;;
13441;SDS011;6793;55.662;13.114;2023-07-28T11:20:34;0.40;;;0.40;;
13441;SDS011;6793;55.662;13.114;2023-07-28T11:23:02;0.30;;;0.30;;
13441;SDS011;6793;55.662;13.114;2023-07-28T11:25:30;0.40;;;0.40;;
13441;SDS011;6793;55.662;13.114;2023-07-28T11:27:57;0.40;;;0.40;;
13441;SDS011;6793;55.662;13.114;2023-07-28T11:30:26;0.30;;;0.30;;
13441;SDS011;6793;55.662;13.114;2023-07-28T11:32:53;0.25;;;0.25;;
13441;SDS011;6793;55.662;13.114;2023-07-28T11:35:21;0.20;;;0.20;;
13441;SDS011;6793;55.662;13.114;2023-07-28T11:37:49;0.32;;;0.32;;
13441;SDS011;6793;55.662;13.114;2023-07-28T11:40:18;0.40;;;0.40;;
13441;SDS011;6793;55.662;13.114;2023-07-28T11:42:47;0.43;;;0.43;;
13441;SDS011;6793;55.662;13.114;2023-07-28T11:45:15;0.40;;;0.40;;
13441;SDS011;6793;55.662;13.114;2023-07-28T11:47:52;0.40;;;0.40;;
13441;SDS011;6793;55.662;13.114;2023-07-28T11:50:21;0.40;;;0.40;;
13441;SDS011;6793;55.662;13.114;2023-07-28T11:52:49;0.40;;;0.40;;
13441;SDS011;6793;55.662;13.114;2023-07-28T11:55:16;0.50;;;0.50;;
13441;SDS011;6793;55.662;13.114;2023-07-28T11:57:43;0.40;;;0.40;;
13441;SDS011;6793;55.662;13.114;2023-07-28T12:00:10;0.35;;;0.35;;
13441;SDS011;6793;55.662;13.114;2023-07-28T12:02:41;0.50;;;0.50;;
13441;SDS011;6793;55.662;13.114;2023-07-28T12:05:12;0.50;;;0.50;;
13441;SDS011;6793;55.662;13.114;2023-07-28T12:07:40;0.50;;;0.50;;
13441;SDS011;6793;55.662;13.114;2023-07-28T12:10:07;0.35;;;0.35;;
13441;SDS011;6793;55.662;13.114;2023-07-28T12:12:39;0.40;;;0.40;;
13441;SDS011;6793;55.662;13.114;2023-07-28T12:15:18;0.40;;;0.40;;
13441;SDS011;6793;55.662;13.114;2023-07-28T12:17:59;0.40;;;0.40;;
13441;SDS011;6793;55.662;13.114;2023-07-28T12:20:32;0.30;;;0.30;;
13441;SDS011;6793;55.662;13.114;2023-07-28T12:22:59;0.30;;;0.30;;
13441;SDS011;6793;55.662;13.114;2023-07-28T12:25:26;0.30;;;0.30;;
13441;SDS011;6793;55.662;13.114;2023-07-28T12:27:54;0.40;;;0.40;;
13441;SDS011;6793;55.662;13.114;2023-07-28T12:30:21;0.30;;;0.30;;
13441;SDS011;6793;55.662;13.114;2023-07-28T12:32:48;0.30;;;0.30;;
13441;SDS011;6793;55.662;13.114;2023-07-28T12:35:15;0.40;;;0.40;;
13441;SDS011;6793;55.662;13.114;2023-07-28T12:37:45;0.30;;;0.30;;
13441;SDS011;6793;55.662;13.114;2023-07-28T12:40:12;0.30;;;0.30;;
13441;SDS011;6793;55.662;13.114;2023-07-28T12:42:39;0.30;;;0.30;;
13441;SDS011;6793;55.662;13.114;2023-07-28T12:45:06;0.30;;;0.30;;
13441;SDS011;6793;55.662;13.114;2023-07-28T12:47:33;0.30;;;0.30;;
13441;SDS011;6793;55.662;13.114;2023-07-28T12:50:01;0.30;;;0.30;;
13441;SDS011;6793;55.662;13.114;2023-07-28T12:52:29;0.30;;;0.30;;
13441;SDS011;6793;55.662;13.114;2023-07-28T12:54:57;0.38;;;0.38;;
13441;SDS011;6793;55.662;13.114;2023-07-28T12:57:24;0.30;;;0.30;;
13441;SDS011;6793;55.662;13.114;2023-07-28T12:59:51;0.30;;;0.30;;
13441;SDS011;6793;55.662;13.114;2023-07-28T13:02:18;0.30;;;0.30;;
13441;SDS011;6793;55.662;13.114;2023-07-28T13:04:46;0.38;;;0.38;;
13441;SDS011;6793;55.662;13.114;2023-07-28T13:07:13;0.40;;;0.40;;
13441;SDS011;6793;55.662;13.114;2023-07-28T13:09:40;0.30;;;0.30;;
13441;SDS011;6793;55.662;13.114;2023-07-28T13:12:09;0.30;;;0.30;;
13441;SDS011;6793;55.662;13.114;2023-07-28T13:14:36;0.40;;;0.40;;
13441;SDS011;6793;55.662;13.114;2023-07-28T13:17:03;0.30;;;0.30;;
13441;SDS011;6793;55.662;13.114;2023-07-28T13:19:30;0.30;;;0.30;;
13441;SDS011;6793;55.662;13.114;2023-07-28T13:21:57;0.40;;;0.40;;
13441;SDS011;6793;55.662;13.114;2023-07-28T13:24:24;0.20;;;0.20;;
13441;SDS011;6793;55.662;13.114;2023-07-28T13:26:51;0.30;;;0.30;;
13441;SDS011;6793;55.662;13.114;2023-07-28T13:29:19;0.30;;;0.30;;
13441;SDS011;6793;55.662;13.114;2023-07-28T13:31:46;0.30;;;0.30;;
13441;SDS011;6793;55.662;13.114;2023-07-28T13:34:14;0.30;;;0.30;;
13441;SDS011;6793;55.662;13.114;2023-07-28T13:36:41;0.30;;;0.30;;
13441;SDS011;6793;55.662;13.114;2023-07-28T13:39:08;0.40;;;0.40;;
13441;SDS011;6793;55.662;13.114;2023-07-28T13:41:35;0.30;;;0.30;;
13441;SDS011;6793;55.662;13.114;2023-07-28T13:44:02;0.30;;;0.30;;
13441;SDS011;6793;55.662;13.114;2023-07-28T13:46:31;0.40;;;0.40;;
13441;SDS011;6793;55.662;13.114;2023-07-28T13:48:58;0.40;;;0.40;;
13441;SDS011;6793;55.662;13.114;2023-07-28T13:51:25;0.40;;;0.40;;
13441;SDS011;6793;55.662;13.114;2023-07-28T13:53:52;0.40;;;0.40;;
13441;SDS011;6793;55.662;13.114;2023-07-28T13:56:19;0.40;;;0.40;;
13441;SDS011;6793;55.662;13.114;2023-07-28T13:58:46;0.30;;;0.30;;
13441;SDS011;6793;55.662;13.114;2023-07-28T14:01:13;0.40;;;0.40;;
13441;SDS011;6793;55.662;13.114;2023-07-28T14:03:41;0.40;;;0.40;;
13441;SDS011;6793;55.662;13.114;2023-07-28T14:06:09;0.20;;;0.20;;
13441;SDS011;6793;55.662;13.114;2023-07-28T14:08:36;0.30;;;0.30;;
13441;SDS011;6793;55.662;13.114;2023-07-28T14:11:03;0.30;;;0.30;;
13441;SDS011;6793;55.662;13.114;2023-07-28T14:13:30;0.20;;;0.20;;
13441;SDS011;6793;55.662;13.114;2023-07-28T14:15:58;0.30;;;0.30;;
13441;SDS011;6793;55.662;13.114;2023-07-28T14:18:25;0.30;;;0.30;;
13441;SDS011;6793;55.662;13.114;2023-07-28T14:20:53;0.30;;;0.30;;
13441;SDS011;6793;55.662;13.114;2023-07-28T14:23:21;0.30;;;0.30;;
13441;SDS011;6793;55.662;13.114;2023-07-28T14:25:48;0.30;;;0.30;;
13441;SDS011;6793;55.662;13.114;2023-07-28T14:28:15;0.40;;;0.40;;
13441;SDS011;6793;55.662;13.114;2023-07-28T14:30:43;0.30;;;0.30;;
13441;SDS011;6793;55.662;13.114;2023-07-28T14:33:11;0.30;;;0.30;;
13441;SDS011;6793;55.662;13.114;2023-07-28T14:35:39;0.30;;;0.30;;
13441;SDS011;6793;55.662;13.114;2023-07-28T14:38:07;0.30;;;0.30;;
13441;SDS011;6793;55.662;13.114;2023-07-28T14:40:35;0.40;;;0.40;;
13441;SDS011;6793;55.662;13.114;2023-07-28T14:43:02;0.30;;;0.30;;
13441;SDS011;6793;55.662;13.114;2023-07-28T14:45:29;0.40;;;0.40;;
13441;SDS011;6793;55.662;13.114;2023-07-28T14:47:56;0.30;;;0.30;;
13441;SDS011;6793;55.662;13.114;2023-07-28T14:50:25;0.40;;;0.40;;
13441;SDS011;6793;55.662;13.114;2023-07-28T14:52:52;0.30;;;0.30;;
13441;SDS011;6793;55.662;13.114;2023-07-28T14:55:20;0.40;;;0.40;;
13441;SDS011;6793;55.662;13.114;2023-07-28T14:57:47;0.40;;;0.40;;